Time;durP1;ratioP1;P1;durP2;ratioP2;P2;SDS_P1;SDS_P2;PMS_P1;PMS_P2;Temp;Humidity;BMP_temperature;BMP_pressure;BME280_temperature;BME280_humidity;BME280_pressure;Samples;Min_cycle;Max_cycle;Signal;HPM_P1;HPM_P2
2023/04/18 00:00:14;;;;;;;21.55;12.27;;;7.70;99.90;;;;;;4954368;28;20038;-76
2023/04/18 00:02:40;;;;;;;21.33;12.68;;;7.70;99.90;;;;;;4969037;28;20098;-73
2023/04/18 00:05:11;;;;;;;22.27;12.20;;;7.70;99.90;;;;;;4968362;28;20607;-76
2023/04/18 00:07:45;;;;;;;21.15;13.20;;;7.80;99.90;;;;;;4971407;28;20023;-73
2023/04/18 00:10:13;;;;;;;21.13;12.45;;;7.70;99.90;;;;;;4970365;28;20073;-72
2023/04/18 00:12:42;;;;;;;22.10;13.63;;;7.70;99.90;;;;;;4968154;28;20026;-73
2023/04/18 00:15:14;;;;;;;19.10;12.07;;;7.70;99.90;;;;;;4968637;28;20030;-77
2023/04/18 00:17:39;;;;;;;20.63;12.30;;;7.70;99.90;;;;;;4970691;28;20660;-76
2023/04/18 00:20:09;;;;;;;21.10;13.45;;;7.70;99.90;;;;;;4971114;28;20122;-76
2023/04/18 00:22:35;;;;;;;21.63;13.32;;;7.70;99.90;;;;;;4970837;28;20077;-76
2023/04/18 00:25:04;;;;;;;22.50;13.13;;;7.60;99.90;;;;;;4975304;28;20034;-76
2023/04/18 00:27:30;;;;;;;22.13;13.13;;;7.60;99.90;;;;;;4968716;28;20445;-76
2023/04/18 00:30:06;;;;;;;22.80;14.20;;;7.60;99.90;;;;;;4972299;28;20117;-74
2023/04/18 00:32:32;;;;;;;25.17;14.07;;;7.60;99.90;;;;;;4970298;28;20042;-77
2023/04/18 00:34:57;;;;;;;27.50;15.70;;;7.60;99.90;;;;;;4970189;28;20034;-76
2023/04/18 00:37:29;;;;;;;29.55;14.20;;;7.60;99.90;;;;;;4965479;28;20066;-77
2023/04/18 00:40:00;;;;;;;25.08;14.57;;;7.60;99.90;;;;;;4974046;28;20023;-74
2023/04/18 00:42:27;;;;;;;26.33;14.23;;;7.60;99.90;;;;;;4972208;28;20114;-75
2023/04/18 00:45:18;;;;;;;27.30;14.48;;;7.60;99.90;;;;;;4974056;28;20117;-76
2023/04/18 00:47:44;;;;;;;26.10;15.25;;;7.60;99.90;;;;;;4969693;28;20195;-76
2023/04/18 00:50:10;;;;;;;22.35;14.27;;;7.60;99.90;;;;;;4969768;28;20077;-76
2023/04/18 00:52:43;;;;;;;23.60;14.55;;;7.60;99.90;;;;;;4969034;28;20034;-77
2023/04/18 00:55:09;;;;;;;24.27;14.05;;;7.60;99.90;;;;;;4971869;28;20420;-76
2023/04/18 00:57:36;;;;;;;24.40;15.00;;;7.60;99.90;;;;;;4965894;28;20042;-77
2023/04/18 01:00:09;;;;;;;24.23;14.20;;;7.60;99.90;;;;;;4974376;28;20019;-77
2023/04/18 01:02:36;;;;;;;26.90;16.00;;;7.60;99.90;;;;;;4972588;28;20154;-78
2023/04/18 01:05:26;;;;;;;24.58;15.52;;;7.60;99.90;;;;;;4972121;28;21518;-77
2023/04/18 01:07:57;;;;;;;27.95;15.90;;;7.60;99.90;;;;;;4971637;28;20030;-77
2023/04/18 01:10:23;;;;;;;24.88;14.48;;;7.60;99.90;;;;;;4954429;28;20130;-77
2023/04/18 01:12:48;;;;;;;24.15;15.85;;;7.60;99.90;;;;;;4975330;28;20061;-77
2023/04/18 01:15:17;;;;;;;25.83;15.98;;;7.60;99.90;;;;;;4976825;28;20037;-78
2023/04/18 01:17:43;;;;;;;27.20;16.25;;;7.60;99.90;;;;;;4976407;28;20049;-77
2023/04/18 01:20:12;;;;;;;28.45;15.90;;;7.60;99.90;;;;;;4974294;28;20015;-77
2023/04/18 01:22:41;;;;;;;29.52;16.75;;;7.60;99.90;;;;;;4974167;28;20054;-77
2023/04/18 01:25:08;;;;;;;26.55;16.23;;;7.60;99.90;;;;;;4973898;28;20026;-75
2023/04/18 01:27:42;;;;;;;26.63;16.50;;;7.60;99.90;;;;;;4973485;28;20027;-74
2023/04/18 01:30:11;;;;;;;25.10;15.18;;;7.60;99.90;;;;;;4971860;28;20027;-75
2023/04/18 01:32:37;;;;;;;29.58;16.17;;;7.60;99.90;;;;;;4973529;28;20092;-78
2023/04/18 01:35:09;;;;;;;25.67;16.00;;;7.60;99.90;;;;;;4968826;28;20030;-77
2023/04/18 01:37:47;;;;;;;25.92;16.65;;;7.60;99.90;;;;;;4974467;28;20019;-77
2023/04/18 01:40:18;;;;;;;27.75;15.50;;;7.50;99.90;;;;;;4971843;28;20023;-76
2023/04/18 01:42:44;;;;;;;27.50;16.92;;;7.50;99.90;;;;;;4975470;28;20042;-76
2023/04/18 01:45:16;;;;;;;28.67;17.77;;;7.50;99.90;;;;;;4973091;28;20428;-77
2023/04/18 01:47:45;;;;;;;27.63;16.27;;;7.50;99.90;;;;;;4971527;28;20205;-77
2023/04/18 01:50:11;;;;;;;26.67;16.20;;;7.50;99.90;;;;;;4970012;28;20038;-77
2023/04/18 01:52:40;;;;;;;26.23;16.60;;;7.40;99.90;;;;;;4972061;28;20050;-76
2023/04/18 01:55:17;;;;;;;28.30;16.40;;;7.40;99.90;;;;;;4973631;28;20053;-76
2023/04/18 01:57:43;;;;;;;25.88;15.95;;;7.40;99.90;;;;;;4973749;28;20519;-75
2023/04/18 02:00:15;;;;;;;24.73;15.70;;;7.40;99.90;;;;;;4972370;28;20019;-77
2023/04/18 02:02:40;;;;;;;30.10;16.75;;;7.40;99.90;;;;;;4970488;28;20277;-76
2023/04/18 02:05:07;;;;;;;27.95;16.73;;;7.40;99.90;;;;;;4970832;28;20545;-78
2023/04/18 02:07:35;;;;;;;28.13;16.92;;;7.40;99.90;;;;;;4972773;28;20106;-76
2023/04/18 02:10:02;;;;;;;25.08;15.07;;;7.40;99.90;;;;;;4968122;28;20089;-74
2023/04/18 02:12:40;;;;;;;28.55;17.02;;;7.40;99.90;;;;;;4948730;28;20035;-76
2023/04/18 02:15:06;;;;;;;27.35;16.48;;;7.40;99.90;;;;;;4969264;28;20524;-77
2023/04/18 02:17:35;;;;;;;27.10;15.88;;;7.40;99.90;;;;;;4972468;28;20023;-76
2023/04/18 02:20:14;;;;;;;29.95;16.60;;;7.40;99.90;;;;;;4956167;28;20038;-77
2023/04/18 02:22:40;;;;;;;30.52;16.95;;;7.40;99.90;;;;;;4973682;28;20023;-76
2023/04/18 02:25:06;;;;;;;25.75;16.40;;;7.40;99.90;;;;;;4967503;28;20125;-78
2023/04/18 02:27:31;;;;;;;26.98;15.30;;;7.40;99.90;;;;;;4973460;28;20030;-79
2023/04/18 02:29:57;;;;;;;28.60;16.85;;;7.30;99.90;;;;;;4974457;28;20100;-77
2023/04/18 02:32:23;;;;;;;22.30;14.55;;;7.40;99.90;;;;;;4971660;28;20035;-78
2023/04/18 02:34:51;;;;;;;25.33;14.57;;;7.30;99.90;;;;;;4973328;28;20118;-74
2023/04/18 02:37:20;;;;;;;25.70;15.55;;;7.30;99.90;;;;;;4958901;28;20085;-77
2023/04/18 02:39:52;;;;;;;28.85;16.17;;;7.30;99.90;;;;;;4950293;28;20129;-76
2023/04/18 02:42:21;;;;;;;24.80;14.95;;;7.30;99.90;;;;;;4956598;28;20054;-76
2023/04/18 02:44:50;;;;;;;23.55;15.23;;;7.30;99.90;;;;;;4972063;28;20468;-73
2023/04/18 02:47:15;;;;;;;26.55;15.70;;;7.30;99.90;;;;;;4972634;28;20031;-76
2023/04/18 02:49:41;;;;;;;25.83;15.60;;;7.30;99.90;;;;;;4978627;28;20428;-76
2023/04/18 02:52:07;;;;;;;24.52;15.30;;;7.20;99.90;;;;;;4955082;28;20400;-77
2023/04/18 02:54:38;;;;;;;24.60;15.00;;;7.30;99.90;;;;;;4961973;28;20497;-77
2023/04/18 02:57:10;;;;;;;24.58;15.63;;;7.20;99.90;;;;;;4975251;28;20027;-76
2023/04/18 02:59:48;;;;;;;26.20;14.80;;;7.30;99.90;;;;;;4969487;28;20393;-77
2023/04/18 03:02:17;;;;;;;29.15;16.30;;;7.20;99.90;;;;;;4976830;28;20125;-76
2023/04/18 03:04:55;;;;;;;25.60;15.00;;;7.20;99.90;;;;;;4975361;28;20030;-73
2023/04/18 03:07:21;;;;;;;27.60;14.05;;;7.20;99.90;;;;;;4975684;28;20580;-77
2023/04/18 03:09:46;;;;;;;25.77;15.40;;;7.20;99.90;;;;;;4969080;28;20116;-77
2023/04/18 03:12:12;;;;;;;23.70;14.50;;;7.20;99.90;;;;;;4977612;28;20025;-75
2023/04/18 03:14:38;;;;;;;20.90;14.10;;;7.20;99.90;;;;;;4975367;28;20488;-76
2023/04/18 03:17:03;;;;;;;23.80;13.98;;;7.20;99.90;;;;;;4981539;28;20026;-76
2023/04/18 03:19:30;;;;;;;23.52;13.77;;;7.20;99.90;;;;;;4959985;28;20053;-77
2023/04/18 03:21:56;;;;;;;23.05;14.07;;;7.20;99.90;;;;;;4974061;28;20457;-76
2023/04/18 03:24:22;;;;;;;24.38;14.93;;;7.20;99.90;;;;;;4976213;28;20034;-75
2023/04/18 03:26:50;;;;;;;24.27;14.70;;;7.20;99.90;;;;;;4977149;28;20031;-77
2023/04/18 03:29:16;;;;;;;27.60;14.82;;;7.20;99.90;;;;;;4974211;28;20145;-77
2023/04/18 03:31:44;;;;;;;22.50;13.93;;;7.20;99.90;;;;;;4975306;28;20419;-77
2023/04/18 03:34:10;;;;;;;27.25;14.73;;;7.20;99.90;;;;;;4976547;28;20053;-77
2023/04/18 03:36:36;;;;;;;21.35;13.25;;;7.20;99.90;;;;;;4971595;28;20031;-76
2023/04/18 03:39:07;;;;;;;21.08;13.60;;;7.20;99.90;;;;;;4957034;28;20030;-77
2023/04/18 03:41:45;;;;;;;23.70;14.38;;;7.20;99.90;;;;;;4955858;28;20510;-75
2023/04/18 03:44:19;;;;;;;23.23;13.52;;;7.20;99.90;;;;;;4975171;28;20085;-76
2023/04/18 03:46:53;;;;;;;24.40;14.30;;;7.20;99.90;;;;;;4977717;28;20049;-76
2023/04/18 03:49:18;;;;;;;23.73;13.85;;;7.20;99.90;;;;;;4975241;28;20023;-76
2023/04/18 03:51:46;;;;;;;28.10;15.48;;;7.20;99.90;;;;;;4974329;28;20038;-76
2023/04/18 03:54:13;;;;;;;23.73;13.38;;;7.20;99.90;;;;;;4964008;28;20026;-77
2023/04/18 03:56:39;;;;;;;26.88;14.15;;;7.20;99.90;;;;;;4979150;28;20085;-78
2023/04/18 03:59:05;;;;;;;25.17;14.45;;;7.30;99.90;;;;;;4975186;28;20023;-75
2023/04/18 04:01:31;;;;;;;20.38;13.15;;;7.20;99.90;;;;;;4973752;28;20027;-77
2023/04/18 04:03:57;;;;;;;23.65;13.98;;;7.20;99.90;;;;;;4978850;28;20045;-74
2023/04/18 04:06:28;;;;;;;21.67;13.35;;;7.20;99.90;;;;;;4973936;28;20031;-77
2023/04/18 04:08:54;;;;;;;21.98;13.63;;;7.20;99.90;;;;;;4983161;28;20061;-76
2023/04/18 04:11:23;;;;;;;21.85;12.40;;;7.20;99.90;;;;;;4979096;28;20027;-76
2023/04/18 04:13:55;;;;;;;23.00;13.48;;;7.20;99.90;;;;;;4982706;28;20292;-77
2023/04/18 04:16:23;;;;;;;21.73;12.88;;;7.20;99.90;;;;;;4973054;28;20110;-76
2023/04/18 04:18:49;;;;;;;21.60;13.02;;;7.10;99.90;;;;;;4970564;28;20182;-78
2023/04/18 04:21:14;;;;;;;19.27;11.70;;;7.10;99.90;;;;;;4959583;28;20030;-75
2023/04/18 04:23:46;;;;;;;21.23;12.30;;;7.10;99.90;;;;;;4976840;28;20487;-77
2023/04/18 04:26:13;;;;;;;20.15;12.70;;;7.10;99.90;;;;;;4976161;28;20026;-74
2023/04/18 04:28:45;;;;;;;24.38;12.73;;;7.10;99.90;;;;;;4974451;28;20033;-75
2023/04/18 04:31:15;;;;;;;20.33;12.25;;;7.10;99.90;;;;;;4974404;28;20051;-78
2023/04/18 04:33:41;;;;;;;23.02;12.25;;;7.10;99.90;;;;;;4961178;28;20089;-76
2023/04/18 04:36:08;;;;;;;20.85;12.85;;;7.10;99.90;;;;;;4977558;28;20483;-77
2023/04/18 04:38:37;;;;;;;20.77;12.80;;;7.00;99.90;;;;;;4975288;28;20017;-78
2023/04/18 04:41:05;;;;;;;19.80;12.20;;;7.00;99.90;;;;;;4975313;28;20114;-77
2023/04/18 04:43:31;;;;;;;22.20;12.65;;;7.00;99.90;;;;;;4966131;28;21722;-77
2023/04/18 04:46:01;;;;;;;20.10;12.63;;;7.00;99.90;;;;;;4981912;28;20041;-76
2023/04/18 04:48:27;;;;;;;20.80;12.15;;;7.00;99.90;;;;;;4969411;28;20023;-78
2023/04/18 04:50:54;;;;;;;21.40;12.52;;;7.00;99.90;;;;;;4975374;28;20053;-78
2023/04/18 04:53:25;;;;;;;20.98;13.20;;;7.00;99.90;;;;;;4961498;28;20027;-76
2023/04/18 04:55:53;;;;;;;18.13;11.80;;;7.00;99.90;;;;;;4979957;28;20428;-77
2023/04/18 04:58:22;;;;;;;21.60;12.55;;;7.00;99.90;;;;;;4972101;28;20027;-77
2023/04/18 05:00:54;;;;;;;21.88;13.52;;;7.00;99.90;;;;;;4968728;28;20399;-74
2023/04/18 05:03:25;;;;;;;20.23;12.25;;;7.00;99.90;;;;;;4965359;28;20026;-77
2023/04/18 05:05:51;;;;;;;19.10;11.50;;;7.00;99.90;;;;;;4971202;28;20174;-76
2023/04/18 05:08:20;;;;;;;18.63;11.70;;;7.00;99.90;;;;;;4967867;28;20102;-76
2023/04/18 05:10:46;;;;;;;20.15;13.23;;;7.10;99.90;;;;;;4970603;28;20042;-76
2023/04/18 05:13:12;;;;;;;20.15;12.20;;;7.00;99.90;;;;;;4970008;28;20042;-77
2023/04/18 05:15:38;;;;;;;18.77;11.57;;;7.00;99.90;;;;;;4970921;28;20489;-76
2023/04/18 05:18:07;;;;;;;25.92;13.38;;;7.00;99.90;;;;;;4968602;28;20070;-76
2023/04/18 05:20:33;;;;;;;19.73;11.93;;;7.00;99.90;;;;;;4976674;28;20080;-77
2023/04/18 05:23:01;;;;;;;21.77;12.27;;;7.00;99.90;;;;;;4974171;28;20106;-78
2023/04/18 05:25:28;;;;;;;21.23;12.70;;;7.00;99.90;;;;;;4971542;28;20081;-78
2023/04/18 05:27:58;;;;;;;21.02;12.77;;;7.00;99.90;;;;;;4977807;28;20023;-78
2023/04/18 05:30:27;;;;;;;21.85;12.77;;;7.00;99.90;;;;;;4973427;28;20054;-78
2023/04/18 05:32:59;;;;;;;21.27;12.32;;;7.00;99.90;;;;;;4970175;28;20668;-78
2023/04/18 05:35:28;;;;;;;21.65;12.20;;;7.00;99.90;;;;;;4958675;28;20513;-78
2023/04/18 05:37:53;;;;;;;20.52;11.52;;;7.00;99.90;;;;;;4973243;28;20543;-77
2023/04/18 05:40:22;;;;;;;22.15;12.85;;;7.10;99.90;;;;;;4966969;28;20027;-78
2023/04/18 05:42:57;;;;;;;21.98;12.05;;;7.10;99.90;;;;;;4978911;28;20027;-78
2023/04/18 05:45:29;;;;;;;20.95;12.60;;;7.10;99.90;;;;;;4970730;28;20043;-78
2023/04/18 05:47:55;;;;;;;20.85;12.88;;;7.10;99.90;;;;;;4975937;28;20027;-78
2023/04/18 05:50:21;;;;;;;20.98;12.77;;;7.10;99.90;;;;;;4969947;28;20035;-77
2023/04/18 05:52:47;;;;;;;23.10;12.77;;;7.10;99.90;;;;;;4954169;28;20031;-77
2023/04/18 05:55:13;;;;;;;21.00;13.00;;;7.10;99.90;;;;;;4970917;28;20439;-77
2023/04/18 05:57:39;;;;;;;22.98;12.38;;;7.10;99.90;;;;;;4971864;28;20031;-77
2023/04/18 06:00:11;;;;;;;22.17;13.25;;;7.10;99.90;;;;;;4969455;28;20038;-77
2023/04/18 06:02:36;;;;;;;23.48;13.70;;;7.10;99.90;;;;;;4971897;28;20118;-77
2023/04/18 06:05:02;;;;;;;23.33;13.57;;;7.10;99.90;;;;;;4970665;28;20027;-78
2023/04/18 06:07:28;;;;;;;22.98;13.65;;;7.10;99.90;;;;;;4974516;28;20373;-76
2023/04/18 06:09:53;;;;;;;24.25;13.25;;;7.10;99.90;;;;;;4969860;28;20069;-78
2023/04/18 06:12:19;;;;;;;23.83;13.50;;;7.10;99.90;;;;;;4970581;28;20027;-77
2023/04/18 06:14:45;;;;;;;21.65;13.77;;;7.20;99.90;;;;;;4951399;28;20031;-77
2023/04/18 06:17:12;;;;;;;24.52;14.20;;;7.20;99.90;;;;;;4957781;28;20141;-73
2023/04/18 06:19:40;;;;;;;20.27;13.30;;;7.20;99.90;;;;;;4965514;28;20059;-72
2023/04/18 06:22:12;;;;;;;19.77;12.35;;;7.20;99.90;;;;;;4967942;28;20117;-77
2023/04/18 06:24:56;;;;;;;24.40;13.25;;;7.20;99.90;;;;;;4959014;28;20019;-77
2023/04/18 06:27:21;;;;;;;25.90;13.95;;;7.20;99.90;;;;;;4972348;28;20484;-76
2023/04/18 06:29:47;;;;;;;21.35;13.70;;;7.20;99.90;;;;;;4976311;28;20046;-76
2023/04/18 06:32:18;;;;;;;23.83;13.80;;;7.20;99.90;;;;;;4966933;28;20058;-76
2023/04/18 06:34:44;;;;;;;21.75;13.55;;;7.30;99.90;;;;;;4971195;28;20034;-75
2023/04/18 06:37:10;;;;;;;21.30;14.13;;;7.40;99.90;;;;;;4969627;28;20042;-75
2023/04/18 06:39:39;;;;;;;21.75;13.68;;;7.40;99.90;;;;;;4967059;28;20034;-76
2023/04/18 06:42:05;;;;;;;21.63;13.25;;;7.40;99.90;;;;;;4979192;28;20042;-75
2023/04/18 06:44:31;;;;;;;20.33;13.30;;;7.50;99.90;;;;;;4970625;28;20026;-75
2023/04/18 06:46:57;;;;;;;23.23;13.38;;;7.50;99.90;;;;;;4971428;28;20050;-75
2023/04/18 06:49:23;;;;;;;21.63;13.55;;;7.40;99.90;;;;;;4975138;28;20027;-75
2023/04/18 06:51:48;;;;;;;22.00;13.63;;;7.50;99.90;;;;;;4955457;28;20534;-75
2023/04/18 06:54:14;;;;;;;21.52;12.95;;;7.50;99.90;;;;;;4972030;28;20034;-76
2023/04/18 06:56:40;;;;;;;22.45;13.57;;;7.50;99.90;;;;;;4976805;28;20134;-76
2023/04/18 06:59:11;;;;;;;21.92;12.90;;;7.50;99.90;;;;;;4975521;28;20026;-76
2023/04/18 07:01:41;;;;;;;27.23;13.95;;;7.50;99.90;;;;;;4974038;28;20046;-76
2023/04/18 07:04:09;;;;;;;22.27;12.98;;;7.60;99.90;;;;;;4974360;28;20456;-76
2023/04/18 07:06:35;;;;;;;22.25;13.02;;;7.60;99.90;;;;;;4972889;28;20019;-76
2023/04/18 07:09:04;;;;;;;22.35;13.98;;;7.70;99.90;;;;;;4971650;28;20026;-76
2023/04/18 07:11:33;;;;;;;22.45;13.63;;;7.60;99.90;;;;;;4971064;28;20031;-76
2023/04/18 07:14:02;;;;;;;21.60;13.60;;;7.70;99.90;;;;;;4971106;28;20118;-76
2023/04/18 07:16:27;;;;;;;24.38;13.43;;;7.70;99.90;;;;;;4973473;28;20385;-76
2023/04/18 07:18:53;;;;;;;23.75;13.90;;;7.70;99.90;;;;;;4971748;28;20077;-76
2023/04/18 07:21:19;;;;;;;22.42;13.55;;;7.70;99.90;;;;;;4972199;28;20025;-76
2023/04/18 07:23:45;;;;;;;26.17;14.27;;;7.70;99.90;;;;;;4971048;28;20151;-76
2023/04/18 07:26:12;;;;;;;23.45;14.10;;;7.70;99.90;;;;;;4972868;28;20492;-76
2023/04/18 07:28:38;;;;;;;21.83;13.35;;;7.80;99.90;;;;;;4970863;28;20023;-76
2023/04/18 07:31:03;;;;;;;22.85;13.52;;;7.80;99.90;;;;;;4976115;28;20143;-75
2023/04/18 07:33:32;;;;;;;25.13;13.77;;;7.90;99.90;;;;;;4970483;28;20034;-76
2023/04/18 07:35:59;;;;;;;24.42;14.23;;;7.90;99.90;;;;;;4967531;28;20030;-77
2023/04/18 07:38:26;;;;;;;25.15;13.20;;;8.00;99.90;;;;;;4968958;28;20058;-75
2023/04/18 07:40:59;;;;;;;21.33;13.60;;;8.00;99.90;;;;;;4973238;28;20058;-76
2023/04/18 07:43:28;;;;;;;25.15;14.32;;;8.10;99.90;;;;;;4970185;28;20031;-77
2023/04/18 07:46:03;;;;;;;25.55;13.95;;;8.20;99.90;;;;;;4970289;28;20050;-76
2023/04/18 07:48:34;;;;;;;23.02;13.82;;;8.20;99.90;;;;;;4968606;28;20041;-77
2023/04/18 07:51:03;;;;;;;21.92;13.60;;;8.20;99.90;;;;;;4977001;28;20030;-76
2023/04/18 07:53:29;;;;;;;24.02;13.98;;;8.20;99.90;;;;;;4972115;28;20037;-76
2023/04/18 07:55:55;;;;;;;23.85;14.02;;;8.20;99.90;;;;;;4973634;28;20105;-77
2023/04/18 07:58:23;;;;;;;24.05;12.75;;;8.20;99.90;;;;;;4972692;28;20062;-77
2023/04/18 08:01:01;;;;;;;21.95;14.30;;;8.20;99.90;;;;;;4972269;28;20085;-77
2023/04/18 08:03:28;;;;;;;23.73;14.05;;;8.20;99.90;;;;;;4972999;28;20041;-77
2023/04/18 08:05:54;;;;;;;23.00;14.30;;;8.20;99.90;;;;;;4969102;28;20045;-76
2023/04/18 08:08:23;;;;;;;24.42;14.05;;;8.20;99.90;;;;;;4972099;28;20035;-76
2023/04/18 08:10:49;;;;;;;22.05;13.90;;;8.30;99.90;;;;;;4968055;28;20041;-75
2023/04/18 08:13:14;;;;;;;22.52;14.07;;;8.30;99.90;;;;;;4976082;28;20480;-76
2023/04/18 08:15:46;;;;;;;21.67;13.88;;;8.30;99.90;;;;;;4969760;28;20030;-76
2023/04/18 08:18:15;;;;;;;23.42;12.90;;;8.30;99.90;;;;;;4965263;28;20023;-76
2023/04/18 08:20:40;;;;;;;21.35;13.82;;;8.20;99.90;;;;;;4954463;28;20090;-77
2023/04/18 08:23:07;;;;;;;21.25;13.52;;;8.20;99.90;;;;;;4968777;28;20035;-76
2023/04/18 08:25:36;;;;;;;22.65;13.52;;;8.20;99.90;;;;;;4967974;28;20022;-77
2023/04/18 08:28:01;;;;;;;20.15;13.00;;;8.30;99.90;;;;;;4972399;28;20038;-77
2023/04/18 08:30:27;;;;;;;24.23;14.57;;;8.30;99.90;;;;;;4956419;28;20127;-76
2023/04/18 08:32:53;;;;;;;22.73;13.77;;;8.30;99.90;;;;;;4969457;28;20114;-76
2023/04/18 08:35:19;;;;;;;20.38;12.55;;;8.40;99.90;;;;;;4970623;28;20034;-76
2023/04/18 08:37:45;;;;;;;22.42;14.15;;;8.40;99.90;;;;;;4952826;28;20051;-77
2023/04/18 08:40:17;;;;;;;22.48;13.75;;;8.40;99.90;;;;;;4970289;28;20023;-77
2023/04/18 08:42:46;;;;;;;21.13;12.55;;;8.50;99.90;;;;;;4969573;28;20110;-75
2023/04/18 08:45:13;;;;;;;23.17;13.18;;;8.60;99.90;;;;;;4952151;28;20056;-76
2023/04/18 08:47:48;;;;;;;25.20;13.88;;;8.60;99.90;;;;;;4968843;28;20034;-76
2023/04/18 08:50:15;;;;;;;23.48;13.35;;;8.70;99.90;;;;;;4971742;28;20031;-78
2023/04/18 08:52:47;;;;;;;24.50;15.07;;;8.70;99.90;;;;;;4968969;28;20022;-77
2023/04/18 08:55:14;;;;;;;23.20;13.95;;;8.70;99.90;;;;;;4976699;28;20030;-78
2023/04/18 08:57:43;;;;;;;25.08;14.27;;;8.80;99.90;;;;;;4954546;28;20023;-77
2023/04/18 09:00:10;;;;;;;24.15;13.73;;;8.90;99.90;;;;;;4966263;28;20021;-76
2023/04/18 09:02:41;;;;;;;22.38;13.95;;;8.90;99.90;;;;;;4970572;28;20134;-76
2023/04/18 09:05:15;;;;;;;21.70;13.55;;;9.00;99.90;;;;;;4969459;28;20435;-76
2023/04/18 09:07:41;;;;;;;22.13;13.75;;;9.10;99.90;;;;;;4971642;28;20119;-75
2023/04/18 09:10:07;;;;;;;23.15;13.23;;;9.10;99.90;;;;;;4973640;28;20472;-75
2023/04/18 09:12:48;;;;;;;21.27;13.40;;;9.10;99.90;;;;;;4966892;28;20023;-76
2023/04/18 09:15:22;;;;;;;22.45;13.23;;;9.20;99.90;;;;;;4970325;28;20101;-75
2023/04/18 09:17:51;;;;;;;22.23;14.07;;;9.20;99.90;;;;;;4952430;28;20444;-76
2023/04/18 09:20:34;;;;;;;23.83;14.80;;;9.30;99.90;;;;;;4965645;28;20034;-75
2023/04/18 09:23:02;;;;;;;22.08;13.75;;;9.30;99.90;;;;;;4950635;28;20018;-76
2023/04/18 09:25:40;;;;;;;23.08;14.18;;;9.40;99.90;;;;;;4973539;28;20042;-76
2023/04/18 09:28:29;;;;;;;22.98;14.25;;;9.40;99.90;;;;;;4971992;28;20031;-76
2023/04/18 09:30:56;;;;;;;23.88;13.50;;;9.50;99.90;;;;;;4949651;28;20034;-78
2023/04/18 09:33:31;;;;;;;22.73;14.55;;;9.50;99.90;;;;;;4973686;28;20101;-79
2023/04/18 09:36:19;;;;;;;23.95;14.55;;;9.60;99.90;;;;;;4975919;28;20038;-79
2023/04/18 09:38:50;;;;;;;24.15;13.98;;;9.70;99.90;;;;;;4972789;28;20103;-79
2023/04/18 09:41:16;;;;;;;21.55;13.88;;;9.70;99.90;;;;;;4968042;28;20038;-78
2023/04/18 09:43:45;;;;;;;23.60;13.93;;;9.80;99.90;;;;;;4964504;28;20026;-77
2023/04/18 09:46:12;;;;;;;28.85;14.98;;;9.90;99.90;;;;;;4971840;28;20140;-77
2023/04/18 09:48:38;;;;;;;21.15;13.10;;;9.90;99.90;;;;;;4967893;28;20510;-75
2023/04/18 09:51:25;;;;;;;23.38;13.73;;;10.00;99.90;;;;;;4971162;28;20114;-78
2023/04/18 09:53:52;;;;;;;23.00;13.77;;;10.10;99.90;;;;;;4973208;28;20134;-78
2023/04/18 09:56:26;;;;;;;22.35;14.10;;;10.20;99.90;;;;;;4975769;28;20027;-78
2023/04/18 09:59:01;;;;;;;23.02;14.02;;;10.20;99.90;;;;;;4974857;28;20035;-78
2023/04/18 10:01:28;;;;;;;22.50;14.50;;;10.20;99.90;;;;;;4976244;28;20043;-78
2023/04/18 10:03:55;;;;;;;23.58;15.10;;;10.30;99.90;;;;;;4961564;28;20031;-77
2023/04/18 10:06:21;;;;;;;21.77;12.90;;;10.40;99.90;;;;;;4980185;28;20026;-78
2023/04/18 10:08:49;;;;;;;15.02;10.75;;;10.50;99.90;;;;;;4968971;28;20110;-77
2023/04/18 10:11:16;;;;;;;18.50;11.30;;;10.70;99.90;;;;;;4956891;28;20038;-77
2023/04/18 10:13:46;;;;;;;18.23;11.10;;;10.90;99.90;;;;;;4971511;28;20039;-78
2023/04/18 10:16:13;;;;;;;17.58;10.57;;;10.90;99.90;;;;;;4970492;28;20027;-77
2023/04/18 10:18:39;;;;;;;16.38;10.68;;;11.10;99.90;;;;;;4973416;28;20109;-77
2023/04/18 10:21:04;;;;;;;14.90;10.32;;;11.30;99.90;;;;;;4973475;28;20507;-77
2023/04/18 10:23:30;;;;;;;14.43;9.43;;;11.50;99.90;;;;;;4972598;28;20023;-77
2023/04/18 10:25:56;;;;;;;16.85;10.75;;;11.50;99.90;;;;;;4956777;28;20026;-78
2023/04/18 10:28:23;;;;;;;16.90;10.88;;;11.60;99.90;;;;;;4973591;28;20115;-77
2023/04/18 10:30:51;;;;;;;15.20;9.50;;;11.60;99.90;;;;;;4955564;28;20046;-77
2023/04/18 10:33:39;;;;;;;19.63;11.02;;;11.70;99.90;;;;;;4958643;28;20027;-77
2023/04/18 10:36:07;;;;;;;16.48;10.05;;;11.80;99.90;;;;;;4970775;28;20039;-77
2023/04/18 10:38:35;;;;;;;17.77;11.25;;;11.90;99.90;;;;;;4974839;28;20031;-76
2023/04/18 10:41:20;;;;;;;14.93;9.75;;;11.80;99.90;;;;;;4972457;28;20105;-77
2023/04/18 10:44:08;;;;;;;13.52;9.07;;;11.80;99.90;;;;;;4971730;28;20035;-77
2023/04/18 10:46:52;;;;;;;15.75;9.63;;;11.90;99.90;;;;;;4974891;28;20388;-77
2023/04/18 10:49:22;;;;;;;14.73;9.63;;;11.90;99.90;;;;;;4972598;28;20102;-77
2023/04/18 10:51:53;;;;;;;14.55;9.13;;;12.00;99.90;;;;;;4960398;28;20042;-77
2023/04/18 10:54:57;;;;;;;12.35;8.23;;;12.00;99.90;;;;;;4953496;28;20045;-77
2023/04/18 10:57:22;;;;;;;16.03;9.83;;;12.00;99.90;;;;;;4976765;28;20030;-78
2023/04/18 10:59:50;;;;;;;13.05;8.63;;;12.00;99.90;;;;;;4978863;28;20311;-78
2023/04/18 11:02:28;;;;;;;13.18;8.32;;;12.00;99.90;;;;;;4970267;28;20073;-76
2023/04/18 11:04:56;;;;;;;13.70;8.73;;;12.00;99.90;;;;;;4973893;28;20026;-78
2023/04/18 11:07:39;;;;;;;13.77;9.30;;;12.00;99.90;;;;;;4972284;28;20034;-77
2023/04/18 11:10:14;;;;;;;12.13;8.73;;;12.10;99.90;;;;;;5033168;23;20041;-77
2023/04/18 11:12:40;;;;;;;13.50;8.88;;;12.10;99.90;;;;;;5027049;28;20048;-80
2023/04/18 11:15:10;;;;;;;10.90;7.40;;;12.10;99.90;;;;;;5027287;28;20021;-80
2023/04/18 11:17:39;;;;;;;16.08;8.10;;;12.20;99.90;;;;;;5032298;28;20021;-80
2023/04/18 11:20:15;;;;;;;12.70;8.80;;;12.20;99.90;;;;;;5005879;28;20517;-78
2023/04/18 11:22:50;;;;;;;11.55;7.85;;;12.20;99.90;;;;;;5009568;28;20026;-75
2023/04/18 11:25:17;;;;;;;11.48;7.38;;;12.20;99.90;;;;;;5008292;28;20026;-77
2023/04/18 11:27:45;;;;;;;13.98;7.45;;;12.20;99.90;;;;;;5007591;28;20378;-78
2023/04/18 11:30:12;;;;;;;9.73;7.03;;;12.20;99.90;;;;;;5007054;28;20348;-79
2023/04/18 11:32:38;;;;;;;12.23;8.23;;;12.20;99.90;;;;;;5001634;28;20049;-77
2023/04/18 11:35:05;;;;;;;11.32;7.40;;;12.20;99.90;;;;;;5008847;28;20018;-78
2023/04/18 11:37:31;;;;;;;9.70;6.63;;;12.30;99.90;;;;;;5006967;28;20508;-78
2023/04/18 11:39:57;;;;;;;11.65;6.43;;;12.30;99.90;;;;;;4993142;28;20106;-78
2023/04/18 11:42:27;;;;;;;9.68;6.85;;;12.30;99.90;;;;;;5011451;28;20085;-78
2023/04/18 11:44:53;;;;;;;13.15;6.68;;;12.40;99.90;;;;;;4994483;28;20094;-77
2023/04/18 11:47:30;;;;;;;10.60;7.05;;;12.40;99.90;;;;;;4997920;28;20156;-76
2023/04/18 11:50:19;;;;;;;10.32;6.13;;;12.40;99.90;;;;;;5012404;28;20034;-77
2023/04/18 11:52:52;;;;;;;9.60;6.55;;;12.40;99.90;;;;;;4991559;28;20444;-76
2023/04/18 11:55:21;;;;;;;12.82;7.78;;;12.50;99.90;;;;;;5013519;28;20054;-78
2023/04/18 11:57:53;;;;;;;8.70;5.40;;;12.60;99.90;;;;;;5014335;28;20037;-77
2023/04/18 12:00:40;;;;;;;8.50;5.75;;;12.60;99.90;;;;;;5012437;28;20026;-77
2023/04/18 12:03:14;;;;;;;8.95;5.95;;;12.70;99.90;;;;;;5016200;28;20061;-78
2023/04/18 12:05:41;;;;;;;;;;;12.80;99.90;;;;;;5012329;28;20053;-77
2023/04/18 12:08:21;;;;;;;8.90;4.82;;;12.90;99.90;;;;;;5013385;28;19988;-77
2023/04/18 12:10:59;;;;;;;7.15;5.03;;;13.00;99.90;;;;;;4993899;28;20065;-77
2023/04/18 12:13:31;;;;;;;6.65;4.53;;;13.00;99.90;;;;;;5012746;28;20026;-77
2023/04/18 12:16:01;;;;;;;6.22;4.40;;;13.10;99.90;;;;;;5014760;28;20120;-76
2023/04/18 12:18:46;;;;;;;6.85;4.70;;;13.10;99.90;;;;;;4996017;28;20116;-77
2023/04/18 12:21:15;;;;;;;7.38;4.85;;;13.10;99.90;;;;;;4997208;28;20499;-77
2023/04/18 12:23:41;;;;;;;7.38;5.07;;;13.10;99.90;;;;;;4993328;28;20041;-77
2023/04/18 12:26:11;;;;;;;9.07;5.82;;;13.10;99.90;;;;;;4995830;28;20026;-77
2023/04/18 12:28:43;;;;;;;8.60;4.88;;;13.10;99.90;;;;;;5013237;28;20542;-77
2023/04/18 12:31:11;;;;;;;6.57;4.30;;;13.10;99.90;;;;;;5009579;28;20105;-76
2023/04/18 12:33:40;;;;;;;7.18;5.45;;;13.10;99.90;;;;;;5008523;28;20387;-77
2023/04/18 12:36:09;;;;;;;7.35;5.05;;;13.10;99.90;;;;;;5008781;28;20068;-76
2023/04/18 12:38:35;;;;;;;7.13;5.13;;;13.10;99.90;;;;;;5010860;28;20061;-77
2023/04/18 12:41:07;;;;;;;6.90;4.60;;;13.10;99.90;;;;;;5011327;28;20030;-77
2023/04/18 12:43:38;;;;;;;7.03;5.00;;;13.20;99.90;;;;;;5015034;28;20022;-77
2023/04/18 12:46:07;;;;;;;7.90;5.00;;;13.20;99.90;;;;;;5009340;28;20025;-78
2023/04/18 12:48:41;;;;;;;7.22;4.70;;;13.20;99.90;;;;;;5013325;28;20056;-77